• Join FlightAware (Why Join?)
  • Login
  • US Flag 
08:47AM EDT


 

Airport Tracker/Info


-or-


 

Live Flight TrackerFlight Track Log ✈ EMD21 ✈ 01-Dec-2013 ✈ KRVS - KMLC

Flight Track Log - Related Links

Times and Time Zones

All times are in EST time to prevent confusion due to time zone crossing. See the EMD21 flight status page for this flight to view local times or setup timezone preferences in your user account.

Time Position Orientation Groundspeed Altitude Reporting Facility
EST Latitude Longitude Course Direction KTS MPH feet Rate Location/Type
05:25PM 36.0586 -95.9819 319° Northwest 123 142 1,400  Level Kansas City Center
05:26PM 36.0856 -96.0111 319° Northwest 142 163 2,800 1,260 Climbing Kansas City Center
05:26PM 36.0911 -96.0217 303° West 145 167 3,100 1,560 Climbing Kansas City Center
05:27PM 36.1056 -96.0544 299° West 144 166 4,400 1,560 Climbing Kansas City Center
05:27PM 36.1097 -96.0658 294° West 141 162 4,700 1,380 Climbing Kansas City Center
05:28PM 36.0983 -96.1061 251° West 165 190 6,000 1,200 Climbing Kansas City Center
05:29PM 36.0608 -96.0928 164° South 152 175 7,000 1,080 Climbing Kansas City Center
05:29PM 36.0575 -96.0931 184° South 157 181 7,100 60 Climbing Kansas City Center
05:30PM 36.0081 -96.0789 167° South 211 243 7,100 -120 Level Kansas City Center
05:30PM 36.0103 -96.0772 31° Northeast 168 193 7,000  Descending Kansas City Center
05:31PM 35.9478 -96.0631 170° South 224 258 7,100  Climbing Kansas City Center
05:31PM 35.9503 -96.0614 28° Northeast 198 228 7,000  Descending Kansas City Center
05:32PM 35.8878 -96.0475 170° South 220 253 7,100  Climbing Kansas City Center
05:32PM 35.8783 -96.0425 157° South 213 245 7,000  Descending Kansas City Center
05:33PM 35.8278 -96.0322 171° South 220 253 7,100  Climbing Kansas City Center
05:33PM 35.8181 -96.0272 157° South 217 250 7,000  Descending Kansas City Center
05:34PM 35.7633 -96.0144 169° South 221 254 7,100  Climbing Kansas City Center
05:34PM 35.7569 -96.0114 159° South 220 253 7,000 -120 Descending Kansas City Center
05:35PM 35.6969 -95.9950 167° South 221 254 7,000  Level Kansas City Center
05:36PM 35.6369 -95.9789 168° South 221 254 7,000  Level Kansas City Center
05:37PM 35.5775 -95.9628 168° South 220 253 7,000  Level Kansas City Center
05:38PM 35.5047 -95.9439 168° South 221 254 7,000  Level Kansas City Center
05:39PM 35.4450 -95.9281 168° South 220 253 7,000  Level Kansas City Center
05:40PM 35.3878 -95.9072 163° South 217 250 7,000  Level Kansas City Center
05:41PM 35.3319 -95.8783 157° South 214 246 7,100 -240 Climbing Kansas City Center
05:42PM 35.2619 -95.8508 162° South 221 254 6,500 -600 Descending Fort Worth Center
05:43PM 35.2044 -95.8275 162° South 219 252 5,900 -600 Descending Fort Worth Center
05:44PM 35.1536 -95.7878 147° Southeast 221 254 5,300 -840 Descending Fort Worth Center
05:45PM 35.1047 -95.7414 142° Southeast 220 253 4,200 -1,020 Descending Fort Worth Center
05:46PM 35.0542 -95.7083 152° Southeast 217 250 3,200 -1,020 Descending Fort Worth Center